sensor_id;sensor_type;location;lat;lon;timestamp;P1;durP1;ratioP1;P2;durP2;ratioP2
30966;SDS011;17649;51.836;8.330;2023-09-19T00:05:54;898.92;;;522.28;;
30966;SDS011;17649;51.836;8.330;2023-09-19T00:08:55;984.67;;;611.47;;
30966;SDS011;17649;51.836;8.330;2023-09-19T00:11:56;1123.15;;;863.90;;
30966;SDS011;17649;51.836;8.330;2023-09-19T00:14:56;1160.33;;;941.87;;
30966;SDS011;17649;51.836;8.330;2023-09-19T00:17:57;1136.13;;;946.40;;
30966;SDS011;17649;51.836;8.330;2023-09-19T00:20:57;1088.50;;;976.63;;
30966;SDS011;17649;51.836;8.330;2023-09-19T00:23:58;1143.10;;;929.65;;
30966;SDS011;17649;51.836;8.330;2023-09-19T00:26:58;966.60;;;670.03;;
30966;SDS011;17649;51.836;8.330;2023-09-19T00:29:59;936.80;;;581.92;;
30966;SDS011;17649;51.836;8.330;2023-09-19T00:33:00;1125.40;;;881.95;;
30966;SDS011;17649;51.836;8.330;2023-09-19T00:36:02;1205.57;;;999.90;;
30966;SDS011;17649;51.836;8.330;2023-09-19T00:39:05;1066.07;;;836.13;;
30966;SDS011;17649;51.836;8.330;2023-09-19T00:42:06;1098.17;;;821.87;;
30966;SDS011;17649;51.836;8.330;2023-09-19T00:45:08;1135.13;;;999.90;;
30966;SDS011;17649;51.836;8.330;2023-09-19T00:48:12;977.03;;;667.38;;
30966;SDS011;17649;51.836;8.330;2023-09-19T00:51:12;1095.97;;;828.17;;
30966;SDS011;17649;51.836;8.330;2023-09-19T00:54:14;1191.03;;;981.58;;
30966;SDS011;17649;51.836;8.330;2023-09-19T00:57:18;955.75;;;630.78;;
30966;SDS011;17649;51.836;8.330;2023-09-19T01:00:19;1170.32;;;961.40;;
30966;SDS011;17649;51.836;8.330;2023-09-19T01:03:21;1146.88;;;936.05;;
30966;SDS011;17649;51.836;8.330;2023-09-19T03:16:53;752.47;;;325.07;;
30966;SDS011;17649;51.836;8.330;2023-09-19T03:19:53;1091.10;;;791.93;;
30966;SDS011;17649;51.836;8.330;2023-09-19T03:22:54;919.28;;;524.85;;
30966;SDS011;17649;51.836;8.330;2023-09-19T03:25:54;938.03;;;550.55;;
30966;SDS011;17649;51.836;8.330;2023-09-19T03:28:56;952.95;;;551.00;;
30966;SDS011;17649;51.836;8.330;2023-09-19T03:31:56;925.30;;;513.72;;
30966;SDS011;17649;51.836;8.330;2023-09-19T03:34:57;1114.78;;;876.75;;
30966;SDS011;17649;51.836;8.330;2023-09-19T03:37:57;927.92;;;554.03;;
30966;SDS011;17649;51.836;8.330;2023-09-19T03:40:58;937.03;;;550.20;;
30966;SDS011;17649;51.836;8.330;2023-09-19T03:43:59;961.40;;;571.33;;
30966;SDS011;17649;51.836;8.330;2023-09-19T03:46:59;951.20;;;566.20;;
30966;SDS011;17649;51.836;8.330;2023-09-19T03:50:00;946.25;;;543.83;;
30966;SDS011;17649;51.836;8.330;2023-09-19T03:53:00;919.45;;;512.63;;
30966;SDS011;17649;51.836;8.330;2023-09-19T03:59:02;1197.33;;;955.93;;
30966;SDS011;17649;51.836;8.330;2023-09-19T04:02:03;988.22;;;640.20;;
30966;SDS011;17649;51.836;8.330;2023-09-19T04:05:04;983.60;;;615.53;;
30966;SDS011;17649;51.836;8.330;2023-09-19T04:08:05;944.50;;;558.22;;
30966;SDS011;17649;51.836;8.330;2023-09-19T04:11:05;920.97;;;521.22;;
30966;SDS011;17649;51.836;8.330;2023-09-19T04:14:06;932.53;;;539.78;;
30966;SDS011;17649;51.836;8.330;2023-09-19T04:17:06;944.40;;;520.00;;
30966;SDS011;17649;51.836;8.330;2023-09-19T04:20:07;904.72;;;494.80;;
30966;SDS011;17649;51.836;8.330;2023-09-19T04:23:08;943.40;;;546.47;;
30966;SDS011;17649;51.836;8.330;2023-09-19T04:26:08;916.47;;;504.52;;
30966;SDS011;17649;51.836;8.330;2023-09-19T04:29:09;933.33;;;524.97;;
30966;SDS011;17649;51.836;8.330;2023-09-19T04:32:11;955.88;;;555.47;;
30966;SDS011;17649;51.836;8.330;2023-09-19T04:35:13;928.42;;;517.65;;
30966;SDS011;17649;51.836;8.330;2023-09-19T04:38:15;930.03;;;523.42;;
30966;SDS011;17649;51.836;8.330;2023-09-19T04:41:15;920.10;;;524.03;;
30966;SDS011;17649;51.836;8.330;2023-09-19T04:44:16;936.00;;;543.00;;
30966;SDS011;17649;51.836;8.330;2023-09-19T04:47:16;930.70;;;531.97;;
30966;SDS011;17649;51.836;8.330;2023-09-19T04:50:16;937.20;;;563.55;;
30966;SDS011;17649;51.836;8.330;2023-09-19T04:53:17;924.45;;;538.50;;
30966;SDS011;17649;51.836;8.330;2023-09-19T04:56:20;926.55;;;551.42;;
30966;SDS011;17649;51.836;8.330;2023-09-19T04:59:21;926.42;;;549.58;;
30966;SDS011;17649;51.836;8.330;2023-09-19T05:02:21;930.83;;;562.65;;
30966;SDS011;17649;51.836;8.330;2023-09-19T05:05:22;928.08;;;537.70;;
30966;SDS011;17649;51.836;8.330;2023-09-19T05:08:23;958.07;;;590.97;;
30966;SDS011;17649;51.836;8.330;2023-09-19T05:11:24;945.58;;;546.13;;
30966;SDS011;17649;51.836;8.330;2023-09-19T05:14:25;935.08;;;537.15;;
30966;SDS011;17649;51.836;8.330;2023-09-19T05:17:25;913.80;;;484.05;;
30966;SDS011;17649;51.836;8.330;2023-09-19T05:20:25;915.92;;;503.63;;
30966;SDS011;17649;51.836;8.330;2023-09-19T05:23:37;950.83;;;557.88;;
30966;SDS011;17649;51.836;8.330;2023-09-19T05:26:38;933.63;;;552.88;;
30966;SDS011;17649;51.836;8.330;2023-09-19T05:29:38;928.15;;;537.47;;
30966;SDS011;17649;51.836;8.330;2023-09-19T05:32:40;910.15;;;454.75;;
30966;SDS011;17649;51.836;8.330;2023-09-19T05:35:41;933.33;;;533.70;;
30966;SDS011;17649;51.836;8.330;2023-09-19T05:38:42;942.90;;;541.65;;
30966;SDS011;17649;51.836;8.330;2023-09-19T05:41:42;952.95;;;586.13;;
30966;SDS011;17649;51.836;8.330;2023-09-19T05:44:42;955.15;;;577.45;;
30966;SDS011;17649;51.836;8.330;2023-09-19T05:47:43;932.33;;;543.58;;
30966;SDS011;17649;51.836;8.330;2023-09-19T05:50:45;860.72;;;419.95;;
30966;SDS011;17649;51.836;8.330;2023-09-19T05:53:48;906.40;;;477.90;;
30966;SDS011;17649;51.836;8.330;2023-09-19T05:56:49;928.92;;;528.17;;
30966;SDS011;17649;51.836;8.330;2023-09-19T05:59:53;899.67;;;478.48;;
30966;SDS011;17649;51.836;8.330;2023-09-19T06:02:53;940.40;;;547.97;;
30966;SDS011;17649;51.836;8.330;2023-09-19T06:05:55;852.88;;;395.35;;
30966;SDS011;17649;51.836;8.330;2023-09-19T06:08:57;773.72;;;295.10;;
30966;SDS011;17649;51.836;8.330;2023-09-19T06:11:58;782.85;;;293.45;;
30966;SDS011;17649;51.836;8.330;2023-09-19T06:15:00;772.45;;;285.25;;
30966;SDS011;17649;51.836;8.330;2023-09-19T06:18:00;959.72;;;561.53;;
30966;SDS011;17649;51.836;8.330;2023-09-19T06:21:02;930.13;;;540.10;;
30966;SDS011;17649;51.836;8.330;2023-09-19T06:24:07;913.53;;;513.17;;
30966;SDS011;17649;51.836;8.330;2023-09-19T06:27:07;1010.67;;;653.60;;
30966;SDS011;17649;51.836;8.330;2023-09-19T06:30:09;999.43;;;644.50;;
30966;SDS011;17649;51.836;8.330;2023-09-19T06:33:13;953.95;;;573.00;;
30966;SDS011;17649;51.836;8.330;2023-09-19T06:36:14;972.15;;;604.20;;
30966;SDS011;17649;51.836;8.330;2023-09-19T06:39:15;1009.63;;;680.63;;
30966;SDS011;17649;51.836;8.330;2023-09-19T06:42:15;1009.33;;;695.22;;
30966;SDS011;17649;51.836;8.330;2023-09-19T06:45:17;959.75;;;589.47;;
30966;SDS011;17649;51.836;8.330;2023-09-19T06:48:21;971.40;;;638.38;;
30966;SDS011;17649;51.836;8.330;2023-09-19T06:51:22;968.60;;;565.53;;
30966;SDS011;17649;51.836;8.330;2023-09-19T06:54:22;1001.83;;;678.95;;
30966;SDS011;17649;51.836;8.330;2023-09-19T06:57:22;998.65;;;669.50;;
30966;SDS011;17649;51.836;8.330;2023-09-19T07:00:23;971.22;;;635.28;;
30966;SDS011;17649;51.836;8.330;2023-09-19T07:03:24;980.10;;;638.40;;
30966;SDS011;17649;51.836;8.330;2023-09-19T07:09:27;643.20;;;407.05;;
30966;SDS011;17649;51.836;8.330;2023-09-19T07:12:27;919.47;;;546.22;;
30966;SDS011;17649;51.836;8.330;2023-09-19T07:15:28;875.60;;;478.77;;
30966;SDS011;17649;51.836;8.330;2023-09-19T07:18:30;925.88;;;546.10;;
30966;SDS011;17649;51.836;8.330;2023-09-19T07:21:31;892.33;;;443.52;;
30966;SDS011;17649;51.836;8.330;2023-09-19T07:24:38;997.15;;;667.95;;
30966;SDS011;17649;51.836;8.330;2023-09-19T07:27:39;945.15;;;579.72;;
30966;SDS011;17649;51.836;8.330;2023-09-19T07:30:43;832.78;;;367.90;;
30966;SDS011;17649;51.836;8.330;2023-09-19T07:33:45;949.25;;;603.40;;
30966;SDS011;17649;51.836;8.330;2023-09-19T07:36:45;905.67;;;514.60;;
30966;SDS011;17649;51.836;8.330;2023-09-19T07:39:47;973.83;;;645.75;;
30966;SDS011;17649;51.836;8.330;2023-09-19T07:42:47;990.03;;;669.53;;
30966;SDS011;17649;51.836;8.330;2023-09-19T07:45:48;989.35;;;678.03;;
30966;SDS011;17649;51.836;8.330;2023-09-19T07:48:49;955.28;;;619.70;;
30966;SDS011;17649;51.836;8.330;2023-09-19T07:51:49;983.63;;;663.95;;
30966;SDS011;17649;51.836;8.330;2023-09-19T07:54:49;983.30;;;649.67;;
30966;SDS011;17649;51.836;8.330;2023-09-19T07:57:50;998.78;;;660.55;;
30966;SDS011;17649;51.836;8.330;2023-09-19T08:00:50;1003.40;;;695.38;;
30966;SDS011;17649;51.836;8.330;2023-09-19T08:03:51;977.13;;;659.70;;
30966;SDS011;17649;51.836;8.330;2023-09-19T08:06:51;984.55;;;655.65;;
30966;SDS011;17649;51.836;8.330;2023-09-19T08:09:52;955.13;;;595.28;;
30966;SDS011;17649;51.836;8.330;2023-09-19T08:12:53;889.22;;;478.88;;
30966;SDS011;17649;51.836;8.330;2023-09-19T08:15:58;938.80;;;566.47;;
30966;SDS011;17649;51.836;8.330;2023-09-19T08:18:58;888.50;;;480.15;;
30966;SDS011;17649;51.836;8.330;2023-09-19T08:21:58;953.15;;;584.70;;
30966;SDS011;17649;51.836;8.330;2023-09-19T08:24:59;883.03;;;487.48;;
30966;SDS011;17649;51.836;8.330;2023-09-19T08:27:59;960.17;;;627.60;;
30966;SDS011;17649;51.836;8.330;2023-09-19T08:31:03;863.67;;;435.27;;
30966;SDS011;17649;51.836;8.330;2023-09-19T08:34:04;1013.27;;;728.47;;
30966;SDS011;17649;51.836;8.330;2023-09-19T08:37:05;996.33;;;697.22;;
30966;SDS011;17649;51.836;8.330;2023-09-19T08:40:05;1021.30;;;751.88;;
30966;SDS011;17649;51.836;8.330;2023-09-19T08:43:09;970.70;;;641.90;;
30966;SDS011;17649;51.836;8.330;2023-09-19T08:46:15;971.58;;;641.67;;
30966;SDS011;17649;51.836;8.330;2023-09-19T08:52:37;1043.03;;;772.45;;
30966;SDS011;17649;51.836;8.330;2023-09-19T08:55:42;975.38;;;652.92;;
30966;SDS011;17649;51.836;8.330;2023-09-19T08:59:08;1048.35;;;768.35;;
30966;SDS011;17649;51.836;8.330;2023-09-19T09:02:11;1013.10;;;702.97;;
30966;SDS011;17649;51.836;8.330;2023-09-19T09:05:12;1000.30;;;726.83;;
30966;SDS011;17649;51.836;8.330;2023-09-19T09:08:15;890.55;;;501.40;;
30966;SDS011;17649;51.836;8.330;2023-09-19T09:11:17;913.20;;;524.95;;
30966;SDS011;17649;51.836;8.330;2023-09-19T09:14:19;1001.00;;;663.50;;
30966;SDS011;17649;51.836;8.330;2023-09-19T09:17:21;987.00;;;616.00;;
30966;SDS011;17649;51.836;8.330;2023-09-19T09:20:22;993.47;;;665.45;;
30966;SDS011;17649;51.836;8.330;2023-09-19T09:23:22;1018.65;;;741.90;;
30966;SDS011;17649;51.836;8.330;2023-09-19T09:29:46;1005.53;;;714.20;;
30966;SDS011;17649;51.836;8.330;2023-09-19T09:32:58;1052.05;;;768.10;;
30966;SDS011;17649;51.836;8.330;2023-09-19T09:36:08;1016.55;;;726.97;;
30966;SDS011;17649;51.836;8.330;2023-09-19T09:39:09;1025.63;;;739.97;;
30966;SDS011;17649;51.836;8.330;2023-09-19T09:42:32;929.83;;;559.75;;
30966;SDS011;17649;51.836;8.330;2023-09-19T09:45:35;1041.38;;;771.85;;
30966;SDS011;17649;51.836;8.330;2023-09-19T09:48:36;1045.32;;;773.08;;
30966;SDS011;17649;51.836;8.330;2023-09-19T09:51:39;930.28;;;549.30;;
30966;SDS011;17649;51.836;8.330;2023-09-19T09:55:01;916.55;;;548.63;;
30966;SDS011;17649;51.836;8.330;2023-09-19T09:58:17;933.83;;;572.13;;
30966;SDS011;17649;51.836;8.330;2023-09-19T10:01:18;931.05;;;565.00;;
30966;SDS011;17649;51.836;8.330;2023-09-19T10:07:36;873.97;;;476.35;;
30966;SDS011;17649;51.836;8.330;2023-09-19T10:10:40;902.63;;;531.10;;
30966;SDS011;17649;51.836;8.330;2023-09-19T10:13:43;858.85;;;468.98;;
30966;SDS011;17649;51.836;8.330;2023-09-19T10:16:47;942.28;;;609.13;;
30966;SDS011;17649;51.836;8.330;2023-09-19T10:22:59;1126.43;;;945.70;;
30966;SDS011;17649;51.836;8.330;2023-09-19T10:29:01;946.40;;;640.58;;
30966;SDS011;17649;51.836;8.330;2023-09-19T10:32:07;931.45;;;613.08;;
30966;SDS011;17649;51.836;8.330;2023-09-19T10:35:08;1004.60;;;743.80;;
30966;SDS011;17649;51.836;8.330;2023-09-19T10:38:13;958.97;;;648.00;;
30966;SDS011;17649;51.836;8.330;2023-09-19T10:41:17;970.13;;;679.53;;
30966;SDS011;17649;51.836;8.330;2023-09-19T10:44:22;939.00;;;618.15;;
30966;SDS011;17649;51.836;8.330;2023-09-19T10:47:23;919.38;;;609.85;;
30966;SDS011;17649;51.836;8.330;2023-09-19T10:50:24;1032.63;;;792.10;;
30966;SDS011;17649;51.836;8.330;2023-09-19T10:53:29;959.17;;;648.42;;
30966;SDS011;17649;51.836;8.330;2023-09-19T10:56:49;937.50;;;586.13;;
30966;SDS011;17649;51.836;8.330;2023-09-19T11:00:04;880.88;;;511.10;;
30966;SDS011;17649;51.836;8.330;2023-09-19T11:03:24;885.72;;;536.92;;
30966;SDS011;17649;51.836;8.330;2023-09-19T11:06:30;930.70;;;592.53;;
30966;SDS011;17649;51.836;8.330;2023-09-19T11:12:48;923.70;;;613.33;;
30966;SDS011;17649;51.836;8.330;2023-09-19T11:16:02;924.83;;;615.67;;
30966;SDS011;17649;51.836;8.330;2023-09-19T11:19:04;971.80;;;708.85;;
30966;SDS011;17649;51.836;8.330;2023-09-19T11:22:08;964.10;;;694.35;;
30966;SDS011;17649;51.836;8.330;2023-09-19T11:28:31;1046.38;;;828.35;;
30966;SDS011;17649;51.836;8.330;2023-09-19T11:31:42;1060.65;;;844.40;;
30966;SDS011;17649;51.836;8.330;2023-09-19T11:34:46;1045.35;;;815.08;;
30966;SDS011;17649;51.836;8.330;2023-09-19T11:41:12;1004.47;;;768.72;;
30966;SDS011;17649;51.836;8.330;2023-09-19T11:47:26;918.75;;;618.78;;
30966;SDS011;17649;51.836;8.330;2023-09-19T11:50:27;1007.55;;;772.80;;
30966;SDS011;17649;51.836;8.330;2023-09-19T11:53:30;1050.22;;;839.25;;
30966;SDS011;17649;51.836;8.330;2023-09-19T11:56:32;1057.38;;;840.45;;
30966;SDS011;17649;51.836;8.330;2023-09-19T11:59:41;1037.95;;;819.13;;
30966;SDS011;17649;51.836;8.330;2023-09-19T12:02:42;1004.47;;;795.38;;
30966;SDS011;17649;51.836;8.330;2023-09-19T12:05:47;965.55;;;712.65;;
30966;SDS011;17649;51.836;8.330;2023-09-19T12:08:48;1050.05;;;856.67;;
30966;SDS011;17649;51.836;8.330;2023-09-19T12:11:50;1059.55;;;861.92;;
30966;SDS011;17649;51.836;8.330;2023-09-19T12:14:51;1008.75;;;778.65;;
30966;SDS011;17649;51.836;8.330;2023-09-19T12:17:52;1008.88;;;778.35;;
30966;SDS011;17649;51.836;8.330;2023-09-19T12:20:53;857.72;;;530.85;;
30966;SDS011;17649;51.836;8.330;2023-09-19T12:24:11;988.22;;;735.55;;
30966;SDS011;17649;51.836;8.330;2023-09-19T12:27:18;1032.78;;;812.28;;
30966;SDS011;17649;51.836;8.330;2023-09-19T12:30:20;962.28;;;694.47;;
30966;SDS011;17649;51.836;8.330;2023-09-19T12:33:27;953.90;;;684.90;;
30966;SDS011;17649;51.836;8.330;2023-09-19T12:36:28;1003.83;;;794.13;;
30966;SDS011;17649;51.836;8.330;2023-09-19T12:39:32;1037.97;;;835.95;;
30966;SDS011;17649;51.836;8.330;2023-09-19T12:42:32;962.47;;;724.92;;
30966;SDS011;17649;51.836;8.330;2023-09-19T12:45:35;1054.68;;;859.20;;
30966;SDS011;17649;51.836;8.330;2023-09-19T12:48:39;1031.93;;;817.33;;
30966;SDS011;17649;51.836;8.330;2023-09-19T12:51:44;1064.13;;;872.17;;
30966;SDS011;17649;51.836;8.330;2023-09-19T12:54:46;1077.55;;;897.58;;
30966;SDS011;17649;51.836;8.330;2023-09-19T12:58:02;925.72;;;665.42;;
30966;SDS011;17649;51.836;8.330;2023-09-19T13:01:13;913.83;;;646.53;;
30966;SDS011;17649;51.836;8.330;2023-09-19T13:04:15;1024.82;;;819.95;;
30966;SDS011;17649;51.836;8.330;2023-09-19T13:14:21;877.25;;;608.42;;
30966;SDS011;17649;51.836;8.330;2023-09-19T13:17:42;873.88;;;577.70;;
30966;SDS011;17649;51.836;8.330;2023-09-19T13:24:20;885.03;;;615.22;;
30966;SDS011;17649;51.836;8.330;2023-09-19T13:27:28;951.97;;;716.80;;
30966;SDS011;17649;51.836;8.330;2023-09-19T13:30:29;943.33;;;708.25;;
30966;SDS011;17649;51.836;8.330;2023-09-19T13:33:30;932.95;;;675.70;;
30966;SDS011;17649;51.836;8.330;2023-09-19T13:36:32;975.58;;;755.70;;
30966;SDS011;17649;51.836;8.330;2023-09-19T13:39:32;982.35;;;760.63;;
30966;SDS011;17649;51.836;8.330;2023-09-19T13:42:32;954.33;;;627.80;;
30966;SDS011;17649;51.836;8.330;2023-09-19T13:45:33;34.03;;;22.50;;
30966;SDS011;17649;51.836;8.330;2023-09-19T13:48:34;38.47;;;24.60;;
30966;SDS011;17649;51.836;8.330;2023-09-19T13:51:35;34.22;;;25.80;;
30966;SDS011;17649;51.836;8.330;2023-09-19T13:54:35;30.52;;;23.88;;
30966;SDS011;17649;51.836;8.330;2023-09-19T13:57:36;39.53;;;33.72;;
30966;SDS011;17649;51.836;8.330;2023-09-19T14:00:36;28.73;;;19.77;;
30966;SDS011;17649;51.836;8.330;2023-09-19T14:03:36;34.33;;;24.20;;
30966;SDS011;17649;51.836;8.330;2023-09-19T14:06:37;37.08;;;25.98;;
30966;SDS011;17649;51.836;8.330;2023-09-19T14:09:37;29.98;;;21.85;;
30966;SDS011;17649;51.836;8.330;2023-09-19T14:12:38;30.60;;;24.35;;
30966;SDS011;17649;51.836;8.330;2023-09-19T14:15:40;30.63;;;21.27;;
30966;SDS011;17649;51.836;8.330;2023-09-19T14:18:42;29.10;;;24.55;;
30966;SDS011;17649;51.836;8.330;2023-09-19T14:21:45;28.27;;;18.80;;
30966;SDS011;17649;51.836;8.330;2023-09-19T14:24:46;28.85;;;25.40;;
30966;SDS011;17649;51.836;8.330;2023-09-19T14:27:47;28.88;;;21.85;;
30966;SDS011;17649;51.836;8.330;2023-09-19T14:30:48;31.38;;;22.80;;
30966;SDS011;17649;51.836;8.330;2023-09-19T14:33:55;29.80;;;23.48;;
30966;SDS011;17649;51.836;8.330;2023-09-19T14:36:56;19.85;;;13.70;;
30966;SDS011;17649;51.836;8.330;2023-09-19T14:39:57;25.13;;;16.77;;
30966;SDS011;17649;51.836;8.330;2023-09-19T14:42:57;21.40;;;13.88;;
30966;SDS011;17649;51.836;8.330;2023-09-19T14:46:07;25.65;;;19.35;;
30966;SDS011;17649;51.836;8.330;2023-09-19T14:49:07;23.48;;;17.50;;
30966;SDS011;17649;51.836;8.330;2023-09-19T14:52:12;26.35;;;18.90;;
30966;SDS011;17649;51.836;8.330;2023-09-19T14:55:15;20.65;;;15.57;;
30966;SDS011;17649;51.836;8.330;2023-09-19T14:58:16;51.35;;;19.88;;
30966;SDS011;17649;51.836;8.330;2023-09-19T15:01:16;20.75;;;16.02;;
30966;SDS011;17649;51.836;8.330;2023-09-19T15:04:17;23.10;;;17.58;;
30966;SDS011;17649;51.836;8.330;2023-09-19T15:07:18;27.45;;;24.10;;
30966;SDS011;17649;51.836;8.330;2023-09-19T15:10:18;21.90;;;16.92;;
30966;SDS011;17649;51.836;8.330;2023-09-19T15:13:20;25.20;;;19.70;;
30966;SDS011;17649;51.836;8.330;2023-09-19T15:16:20;24.35;;;16.23;;
30966;SDS011;17649;51.836;8.330;2023-09-19T15:19:21;29.77;;;19.95;;
30966;SDS011;17649;51.836;8.330;2023-09-19T15:22:22;26.55;;;20.10;;
30966;SDS011;17649;51.836;8.330;2023-09-19T15:25:22;27.88;;;20.70;;
30966;SDS011;17649;51.836;8.330;2023-09-19T15:28:24;20.30;;;14.90;;
30966;SDS011;17649;51.836;8.330;2023-09-19T15:31:24;23.23;;;15.77;;
30966;SDS011;17649;51.836;8.330;2023-09-19T15:34:26;22.95;;;18.02;;
30966;SDS011;17649;51.836;8.330;2023-09-19T15:37:26;26.10;;;17.27;;
30966;SDS011;17649;51.836;8.330;2023-09-19T15:40:28;25.75;;;20.30;;
30966;SDS011;17649;51.836;8.330;2023-09-19T15:43:30;22.75;;;18.38;;
30966;SDS011;17649;51.836;8.330;2023-09-19T15:46:31;31.15;;;24.30;;
30966;SDS011;17649;51.836;8.330;2023-09-19T15:49:35;26.08;;;17.42;;
30966;SDS011;17649;51.836;8.330;2023-09-19T15:52:35;24.17;;;19.55;;
30966;SDS011;17649;51.836;8.330;2023-09-19T15:55:39;24.95;;;17.40;;
30966;SDS011;17649;51.836;8.330;2023-09-19T15:58:43;22.08;;;16.50;;
30966;SDS011;17649;51.836;8.330;2023-09-19T16:01:44;24.95;;;21.02;;
30966;SDS011;17649;51.836;8.330;2023-09-19T16:04:45;29.67;;;22.95;;
30966;SDS011;17649;51.836;8.330;2023-09-19T16:07:45;39.58;;;26.65;;
30966;SDS011;17649;51.836;8.330;2023-09-19T16:10:47;31.30;;;24.92;;
30966;SDS011;17649;51.836;8.330;2023-09-19T16:13:48;26.58;;;19.77;;
30966;SDS011;17649;51.836;8.330;2023-09-19T16:16:49;24.05;;;18.52;;
30966;SDS011;17649;51.836;8.330;2023-09-19T16:19:50;27.58;;;20.15;;
30966;SDS011;17649;51.836;8.330;2023-09-19T16:22:50;23.92;;;16.05;;
30966;SDS011;17649;51.836;8.330;2023-09-19T16:25:59;26.38;;;19.20;;
30966;SDS011;17649;51.836;8.330;2023-09-19T16:29:01;30.27;;;19.85;;
30966;SDS011;17649;51.836;8.330;2023-09-19T16:32:01;28.38;;;18.52;;
30966;SDS011;17649;51.836;8.330;2023-09-19T16:35:02;25.80;;;16.33;;
30966;SDS011;17649;51.836;8.330;2023-09-19T16:38:02;21.80;;;15.18;;
30966;SDS011;17649;51.836;8.330;2023-09-19T16:41:04;23.55;;;16.38;;
30966;SDS011;17649;51.836;8.330;2023-09-19T16:44:05;33.77;;;19.50;;
30966;SDS011;17649;51.836;8.330;2023-09-19T16:47:07;28.02;;;18.73;;
30966;SDS011;17649;51.836;8.330;2023-09-19T16:50:09;25.80;;;16.95;;
30966;SDS011;17649;51.836;8.330;2023-09-19T16:53:10;24.48;;;15.75;;
30966;SDS011;17649;51.836;8.330;2023-09-19T16:56:12;34.83;;;24.25;;
30966;SDS011;17649;51.836;8.330;2023-09-19T16:59:14;26.38;;;19.15;;
30966;SDS011;17649;51.836;8.330;2023-09-19T17:02:15;25.42;;;16.73;;
30966;SDS011;17649;51.836;8.330;2023-09-19T17:05:16;27.92;;;20.13;;
30966;SDS011;17649;51.836;8.330;2023-09-19T17:08:18;26.00;;;17.40;;
30966;SDS011;17649;51.836;8.330;2023-09-19T17:11:18;25.52;;;15.35;;
30966;SDS011;17649;51.836;8.330;2023-09-19T17:14:20;25.45;;;17.13;;
30966;SDS011;17649;51.836;8.330;2023-09-19T17:17:21;26.08;;;19.63;;
30966;SDS011;17649;51.836;8.330;2023-09-19T17:20:21;30.33;;;18.23;;
30966;SDS011;17649;51.836;8.330;2023-09-19T17:23:22;30.63;;;20.30;;
30966;SDS011;17649;51.836;8.330;2023-09-19T17:26:24;26.42;;;17.10;;
30966;SDS011;17649;51.836;8.330;2023-09-19T17:29:25;24.33;;;16.73;;
30966;SDS011;17649;51.836;8.330;2023-09-19T17:32:26;27.13;;;21.17;;
30966;SDS011;17649;51.836;8.330;2023-09-19T17:35:26;29.48;;;20.40;;
30966;SDS011;17649;51.836;8.330;2023-09-19T17:38:27;26.25;;;19.00;;
30966;SDS011;17649;51.836;8.330;2023-09-19T17:41:28;25.00;;;19.67;;
30966;SDS011;17649;51.836;8.330;2023-09-19T17:44:28;25.65;;;19.13;;
30966;SDS011;17649;51.836;8.330;2023-09-19T17:47:34;27.70;;;21.88;;
30966;SDS011;17649;51.836;8.330;2023-09-19T17:50:34;24.63;;;18.25;;
30966;SDS011;17649;51.836;8.330;2023-09-19T17:53:36;26.95;;;19.20;;
30966;SDS011;17649;51.836;8.330;2023-09-19T17:56:38;22.70;;;14.43;;
30966;SDS011;17649;51.836;8.330;2023-09-19T17:59:40;20.77;;;16.25;;
30966;SDS011;17649;51.836;8.330;2023-09-19T18:02:40;22.85;;;16.55;;
30966;SDS011;17649;51.836;8.330;2023-09-19T18:05:44;22.08;;;18.02;;
30966;SDS011;17649;51.836;8.330;2023-09-19T18:08:45;25.25;;;18.25;;
30966;SDS011;17649;51.836;8.330;2023-09-19T18:11:45;35.30;;;28.85;;
30966;SDS011;17649;51.836;8.330;2023-09-19T18:14:45;25.10;;;18.13;;
30966;SDS011;17649;51.836;8.330;2023-09-19T18:17:46;32.85;;;21.13;;
30966;SDS011;17649;51.836;8.330;2023-09-19T18:20:46;29.67;;;21.50;;
30966;SDS011;17649;51.836;8.330;2023-09-19T18:23:57;25.83;;;17.40;;
30966;SDS011;17649;51.836;8.330;2023-09-19T18:27:00;31.60;;;24.73;;
30966;SDS011;17649;51.836;8.330;2023-09-19T18:30:04;24.77;;;19.98;;
30966;SDS011;17649;51.836;8.330;2023-09-19T18:33:08;28.85;;;21.60;;
30966;SDS011;17649;51.836;8.330;2023-09-19T18:36:08;29.23;;;23.25;;
30966;SDS011;17649;51.836;8.330;2023-09-19T18:39:09;31.13;;;26.40;;
30966;SDS011;17649;51.836;8.330;2023-09-19T18:42:10;31.23;;;24.23;;
30966;SDS011;17649;51.836;8.330;2023-09-19T18:45:12;33.80;;;26.00;;
30966;SDS011;17649;51.836;8.330;2023-09-19T18:48:12;36.28;;;26.98;;
30966;SDS011;17649;51.836;8.330;2023-09-19T18:51:17;26.38;;;16.40;;
30966;SDS011;17649;51.836;8.330;2023-09-19T18:54:18;21.75;;;14.50;;
30966;SDS011;17649;51.836;8.330;2023-09-19T18:57:19;24.17;;;17.15;;
30966;SDS011;17649;51.836;8.330;2023-09-19T19:00:20;24.73;;;18.30;;
30966;SDS011;17649;51.836;8.330;2023-09-19T19:03:25;20.85;;;15.10;;
30966;SDS011;17649;51.836;8.330;2023-09-19T19:06:26;24.65;;;19.38;;
30966;SDS011;17649;51.836;8.330;2023-09-19T19:09:26;24.95;;;17.95;;
30966;SDS011;17649;51.836;8.330;2023-09-19T19:12:27;24.33;;;18.10;;
30966;SDS011;17649;51.836;8.330;2023-09-19T19:15:27;29.77;;;23.40;;
30966;SDS011;17649;51.836;8.330;2023-09-19T19:18:27;21.95;;;17.02;;
30966;SDS011;17649;51.836;8.330;2023-09-19T19:21:29;23.90;;;18.63;;
30966;SDS011;17649;51.836;8.330;2023-09-19T19:24:30;22.70;;;17.75;;
30966;SDS011;17649;51.836;8.330;2023-09-19T19:27:31;31.52;;;22.27;;
30966;SDS011;17649;51.836;8.330;2023-09-19T19:30:34;22.95;;;18.55;;
30966;SDS011;17649;51.836;8.330;2023-09-19T19:33:36;24.92;;;17.65;;
30966;SDS011;17649;51.836;8.330;2023-09-19T19:36:38;24.80;;;18.38;;
30966;SDS011;17649;51.836;8.330;2023-09-19T19:39:38;24.35;;;17.77;;
30966;SDS011;17649;51.836;8.330;2023-09-19T19:42:39;23.33;;;19.55;;
30966;SDS011;17649;51.836;8.330;2023-09-19T19:45:41;29.85;;;24.20;;
30966;SDS011;17649;51.836;8.330;2023-09-19T19:48:41;25.63;;;16.33;;
30966;SDS011;17649;51.836;8.330;2023-09-19T19:51:42;23.63;;;15.50;;
30966;SDS011;17649;51.836;8.330;2023-09-19T19:54:44;26.48;;;17.35;;
30966;SDS011;17649;51.836;8.330;2023-09-19T19:57:49;28.15;;;17.38;;
30966;SDS011;17649;51.836;8.330;2023-09-19T20:00:53;29.52;;;22.80;;
30966;SDS011;17649;51.836;8.330;2023-09-19T20:03:55;26.63;;;19.00;;
30966;SDS011;17649;51.836;8.330;2023-09-19T20:06:55;18.58;;;12.45;;
30966;SDS011;17649;51.836;8.330;2023-09-19T20:09:56;25.55;;;17.63;;
30966;SDS011;17649;51.836;8.330;2023-09-19T20:12:56;25.58;;;16.80;;
30966;SDS011;17649;51.836;8.330;2023-09-19T20:15:58;25.63;;;20.70;;
30966;SDS011;17649;51.836;8.330;2023-09-19T20:19:01;25.75;;;21.73;;
30966;SDS011;17649;51.836;8.330;2023-09-19T20:22:07;21.30;;;15.32;;
30966;SDS011;17649;51.836;8.330;2023-09-19T20:25:09;36.58;;;25.38;;